Time;durP1;ratioP1;P1;durP2;ratioP2;P2;SDS_P1;SDS_P2;PMS_P1;PMS_P2;Temp;Humidity;BMP_temperature;BMP_pressure;BME280_temperature;BME280_humidity;BME280_pressure;Samples;Min_cycle;Max_cycle;Signal;HPM_P1;HPM_P2
2022/04/07 00:02:25;;;;;;;;;;;;;;;21.10;26.96;97420.94;5016777;28;1020;-75
2022/04/07 00:04:50;;;;;;;;;;;;;;;21.02;27.08;97413.91;5017047;28;1018;-74
2022/04/07 00:07:15;;;;;;;;;;;;;;;21.37;26.58;97416.81;5016881;28;1132;-75
2022/04/07 00:09:41;;;;;;;;;;;;;;;21.77;26.11;97406.47;5016659;28;1060;-75
2022/04/07 00:12:07;;;;;;;;;;;;;;;21.91;25.84;97404.34;5016798;28;1081;-75
2022/04/07 00:14:32;;;;;;;;;;;;;;;21.50;26.40;97397.72;4965042;28;1000;-74
2022/04/07 00:16:59;;;;;;;;;;;;;;;21.26;26.63;97400.97;5016552;28;963;-75
2022/04/07 00:19:24;;;;;;;;;;;;;;;21.08;26.81;97395.13;5016482;28;995;-75
2022/04/07 00:21:50;;;;;;;;;;;;;;;20.94;27.06;97390.75;5015946;28;1914;-74
2022/04/07 00:24:15;;;;;;;;;;;;;;;21.01;27.09;97378.41;5016497;28;1018;-75
2022/04/07 00:26:41;;;;;;;;;;;;;;;21.37;26.52;97374.38;5016404;28;918;-74
2022/04/07 00:29:06;;;;;;;;;;;;;;;21.65;26.23;97359.16;5016387;28;936;-75
2022/04/07 00:31:39;;;;;;;;;;;;;;;21.92;25.77;97354.97;5016428;28;901;-75
2022/04/07 00:34:07;;;;;;;;;;;;;;;21.44;26.27;97348.63;5016247;28;872;-74
2022/04/07 00:36:32;;;;;;;;;;;;;;;21.30;26.59;97349.94;4954986;29;3005;-75
2022/04/07 00:38:58;;;;;;;;;;;;;;;21.27;26.52;97345.94;4939105;29;1009;-75
2022/04/07 00:41:23;;;;;;;;;;;;;;;21.06;26.90;97341.06;4939775;29;1996;-75
2022/04/07 00:43:50;;;;;;;;;;;;;;;21.13;26.85;97335.13;4955612;29;1007;-75
2022/04/07 00:46:15;;;;;;;;;;;;;;;21.13;27.00;97335.13;4955367;29;1017;-75
2022/04/07 00:48:40;;;;;;;;;;;;;;;21.08;26.94;97328.00;4955345;29;1049;-75
2022/04/07 00:51:06;;;;;;;;;;;;;;;21.15;26.63;97327.00;4938973;29;1194;-75
2022/04/07 00:53:33;;;;;;;;;;;;;;;21.75;26.05;97318.34;4916846;29;1007;-75
2022/04/07 00:56:00;;;;;;;;;;;;;;;21.90;25.53;97314.97;4916626;29;1043;-75
2022/04/07 00:58:26;;;;;;;;;;;;;;;21.49;26.00;97322.56;4901378;29;1001;-74
2022/04/07 01:00:51;;;;;;;;;;;;;;;21.26;26.67;97316.09;4900949;29;1977;-74
2022/04/07 01:03:16;;;;;;;;;;;;;;;21.12;26.89;97316.59;4916767;29;1061;-75
2022/04/07 01:05:42;;;;;;;;;;;;;;;21.31;26.72;97312.69;4897415;29;969;-75
2022/04/07 01:08:08;;;;;;;;;;;;;;;21.85;25.73;97300.13;4939970;29;1078;-75
2022/04/07 01:10:34;;;;;;;;;;;;;;;21.85;25.58;97299.34;4954661;29;985;-74
2022/04/07 01:12:59;;;;;;;;;;;;;;;21.45;26.33;97296.41;4954431;29;977;-75
2022/04/07 01:15:25;;;;;;;;;;;;;;;21.29;26.54;97292.50;4954561;29;1588;-74
2022/04/07 01:17:50;;;;;;;;;;;;;;;21.03;27.02;97291.03;4954677;29;1071;-75
2022/04/07 01:20:16;;;;;;;;;;;;;;;21.61;26.01;97289.78;4954506;29;1903;-75
2022/04/07 01:22:41;;;;;;;;;;;;;;;21.83;25.94;97284.88;4954773;29;904;-74
2022/04/07 01:25:07;;;;;;;;;;;;;;;21.75;25.84;97278.69;4968076;28;1136;-75
2022/04/07 01:27:33;;;;;;;;;;;;;;;21.46;26.34;97272.56;4997347;28;1044;-75
2022/04/07 01:30:04;;;;;;;;;;;;;;;21.29;26.28;97275.53;4981340;28;1001;-75
2022/04/07 01:32:32;;;;;;;;;;;;;;;21.28;26.50;97273.97;4997273;28;971;-74
2022/04/07 01:34:58;;;;;;;;;;;;;;;21.61;26.25;97261.47;4997411;28;1010;-74
2022/04/07 01:37:23;;;;;;;;;;;;;;;21.84;25.74;97270.25;5014578;28;1066;-74
2022/04/07 01:39:49;;;;;;;;;;;;;;;21.60;25.80;97249.34;5019128;28;1902;-75
2022/04/07 01:42:14;;;;;;;;;;;;;;;21.27;26.54;97249.75;5019265;28;982;-74
2022/04/07 01:44:42;;;;;;;;;;;;;;;21.30;26.32;97253.75;5019197;28;1162;-75
2022/04/07 01:47:08;;;;;;;;;;;;;;;21.25;26.69;97251.47;5019344;28;945;-75
2022/04/07 01:49:33;;;;;;;;;;;;;;;21.13;26.94;97244.59;4957895;29;1033;-75
2022/04/07 01:51:59;;;;;;;;;;;;;;;21.08;27.04;97237.50;4942257;29;989;-74
2022/04/07 01:54:25;;;;;;;;;;;;;;;21.04;26.91;97236.88;4958181;29;1148;-75
2022/04/07 01:56:50;;;;;;;;;;;;;;;21.22;26.83;97235.41;4938817;29;997;-74
2022/04/07 01:59:16;;;;;;;;;;;;;;;21.76;25.98;97229.31;4939126;29;1000;-75
2022/04/07 02:01:41;;;;;;;;;;;;;;;21.75;25.93;97233.38;4881992;29;1993;-75
2022/04/07 02:04:08;;;;;;;;;;;;;;;21.56;26.15;97237.41;4866647;29;966;-75
2022/04/07 02:06:33;;;;;;;;;;;;;;;21.40;26.51;97229.09;4882179;29;969;-76
2022/04/07 02:09:00;;;;;;;;;;;;;;;21.12;26.98;97219.63;4863451;29;1124;-75
2022/04/07 02:11:25;;;;;;;;;;;;;;;21.27;26.58;97232.78;4863381;29;1163;-76
2022/04/07 02:13:51;;;;;;;;;;;;;;;21.33;26.55;97235.81;4863389;29;1100;-75
2022/04/07 02:16:17;;;;;;;;;;;;;;;21.19;26.89;97228.66;4863626;29;1023;-75
2022/04/07 02:18:43;;;;;;;;;;;;;;;21.12;27.07;97228.91;4863450;29;1069;-75
2022/04/07 02:21:09;;;;;;;;;;;;;;;21.12;26.89;97225.28;4905224;29;1914;-74
2022/04/07 02:23:41;;;;;;;;;;;;;;;21.05;27.22;97229.16;4919197;29;950;-75
2022/04/07 02:26:13;;;;;;;;;;;;;;;21.13;26.87;97221.97;4919246;29;1169;-75
2022/04/07 02:28:39;;;;;;;;;;;;;;;21.60;26.41;97229.53;4919347;29;1094;-74
2022/04/07 02:31:05;;;;;;;;;;;;;;;22.02;25.47;97227.06;4919120;29;1404;-75
2022/04/07 02:33:30;;;;;;;;;;;;;;;21.45;26.36;97214.34;4967345;28;945;-75
2022/04/07 02:35:56;;;;;;;;;;;;;;;21.16;26.59;97221.06;4976844;28;1110;-75
2022/04/07 02:38:21;;;;;;;;;;;;;;;21.13;26.92;97221.97;4976200;28;919;-75
2022/04/07 02:40:47;;;;;;;;;;;;;;;21.12;26.86;97228.09;5010810;28;1910;-74
2022/04/07 02:43:12;;;;;;;;;;;;;;;21.29;26.55;97224.59;5018288;28;996;-74
2022/04/07 02:45:38;;;;;;;;;;;;;;;21.84;26.08;97229.81;5018005;28;998;-75
2022/04/07 02:48:03;;;;;;;;;;;;;;;21.58;25.76;97230.00;5018350;28;1191;-75
2022/04/07 02:50:29;;;;;;;;;;;;;;;21.12;26.92;97230.94;5017591;28;1164;-75
2022/04/07 02:52:54;;;;;;;;;;;;;;;21.16;26.57;97209.75;5018014;28;941;-75
2022/04/07 02:55:20;;;;;;;;;;;;;;;21.56;26.44;97211.91;5017941;28;937;-75
2022/04/07 02:57:45;;;;;;;;;;;;;;;21.89;25.81;97211.44;4967051;28;917;-75
2022/04/07 03:00:11;;;;;;;;;;;;;;;21.92;25.63;97207.69;5017567;28;1961;-75
2022/04/07 03:02:36;;;;;;;;;;;;;;;21.29;26.37;97196.31;5018306;28;1024;-74
2022/04/07 03:05:02;;;;;;;;;;;;;;;21.20;26.63;97193.44;5017439;28;1129;-74
2022/04/07 03:07:27;;;;;;;;;;;;;;;21.21;26.67;97189.34;5017565;28;848;-74
2022/04/07 03:09:53;;;;;;;;;;;;;;;21.44;26.28;97201.44;5017748;28;935;-75
2022/04/07 03:12:19;;;;;;;;;;;;;;;21.68;26.26;97181.94;5017420;28;1089;-74
2022/04/07 03:14:44;;;;;;;;;;;;;;;21.87;25.80;97177.13;5017398;28;930;-75
2022/04/07 03:17:10;;;;;;;;;;;;;;;21.37;26.51;97179.09;5017534;28;911;-75
2022/04/07 03:19:35;;;;;;;;;;;;;;;21.04;26.77;97173.84;5017763;28;1017;-75
2022/04/07 03:22:01;;;;;;;;;;;;;;;20.92;27.07;97171.88;5017069;28;1906;-74
2022/04/07 03:24:26;;;;;;;;;;;;;;;21.04;26.94;97162.53;5017557;28;945;-75
2022/04/07 03:26:52;;;;;;;;;;;;;;;21.87;25.89;97162.97;5017357;28;906;-76
2022/04/07 03:29:19;;;;;;;;;;;;;;;21.99;25.56;97153.56;5017482;28;1045;-75
2022/04/07 03:31:45;;;;;;;;;;;;;;;21.43;26.47;97151.78;5017552;28;925;-74
2022/04/07 03:34:10;;;;;;;;;;;;;;;21.14;26.85;97155.69;5016883;28;1009;-75
2022/04/07 03:36:36;;;;;;;;;;;;;;;20.94;27.40;97153.19;4998562;28;1050;-76
2022/04/07 03:39:02;;;;;;;;;;;;;;;20.99;26.95;97149.78;5017346;28;930;-76
2022/04/07 03:41:28;;;;;;;;;;;;;;;21.53;26.24;97144.91;5016768;28;1898;-76
2022/04/07 03:43:54;;;;;;;;;;;;;;;21.90;26.00;97139.38;5016647;28;1512;-76
2022/04/07 03:46:21;;;;;;;;;;;;;;;21.51;26.04;97134.06;5017043;28;1137;-76
2022/04/07 03:48:50;;;;;;;;;;;;;;;21.25;26.77;97127.78;5016023;28;1002;-75
2022/04/07 03:51:16;;;;;;;;;;;;;;;20.97;26.92;97123.97;5016849;28;1120;-76
2022/04/07 03:53:41;;;;;;;;;;;;;;;21.16;26.78;97110.75;4975165;28;979;-75
2022/04/07 03:56:06;;;;;;;;;;;;;;;21.64;26.35;97097.13;4975303;28;1015;-75
2022/04/07 03:58:32;;;;;;;;;;;;;;;21.90;25.66;97099.72;4974971;28;1678;-75
2022/04/07 04:00:58;;;;;;;;;;;;;;;21.49;26.32;97096.13;4975303;28;1903;-76
2022/04/07 04:03:23;;;;;;;;;;;;;;;21.14;26.65;97082.13;4974858;28;1521;-76
2022/04/07 04:05:49;;;;;;;;;;;;;;;21.09;26.73;97088.41;4974900;28;1576;-76
2022/04/07 04:08:14;;;;;;;;;;;;;;;21.47;26.56;97082.47;4958462;28;1455;-76
2022/04/07 04:10:39;;;;;;;;;;;;;;;21.78;26.12;97073.09;4975024;28;1031;-75
2022/04/07 04:13:05;;;;;;;;;;;;;;;21.91;25.74;97065.25;4975058;28;1116;-75
2022/04/07 04:15:30;;;;;;;;;;;;;;;21.38;26.48;97073.13;4974196;28;1484;-76
2022/04/07 04:17:56;;;;;;;;;;;;;;;21.07;27.01;97066.22;4975001;28;1744;-75
2022/04/07 04:20:21;;;;;;;;;;;;;;;21.09;26.80;97057.28;4974929;28;1902;-75
2022/04/07 04:22:46;;;;;;;;;;;;;;;21.38;26.82;97033.53;4974600;28;1799;-75
2022/04/07 04:25:12;;;;;;;;;;;;;;;21.71;25.90;97043.06;4975918;28;1020;-75
2022/04/07 04:27:37;;;;;;;;;;;;;;;21.54;26.26;97036.06;5016343;28;944;-75
2022/04/07 04:30:03;;;;;;;;;;;;;;;21.22;26.85;97038.16;5015968;28;952;-75
2022/04/07 04:32:28;;;;;;;;;;;;;;;21.06;27.00;97024.25;5016205;28;909;-75
2022/04/07 04:34:54;;;;;;;;;;;;;;;21.07;27.11;97020.19;5016061;28;1457;-75
2022/04/07 04:37:25;;;;;;;;;;;;;;;21.48;26.34;97027.41;5016085;28;888;-75
2022/04/07 04:39:51;;;;;;;;;;;;;;;21.81;26.06;97022.00;5016143;28;1914;-75
2022/04/07 04:42:16;;;;;;;;;;;;;;;21.50;26.14;97024.13;5016368;28;889;-75
2022/04/07 04:44:42;;;;;;;;;;;;;;;21.26;26.33;97021.81;5024337;28;1488;-75
2022/04/07 04:47:07;;;;;;;;;;;;;;;21.19;26.83;97027.78;5016236;28;1034;-75
2022/04/07 04:49:33;;;;;;;;;;;;;;;21.03;27.06;97019.53;5015887;28;1175;-75
2022/04/07 04:51:58;;;;;;;;;;;;;;;21.07;26.86;97014.53;5015462;28;1429;-75
2022/04/07 04:54:24;;;;;;;;;;;;;;;21.02;26.86;97015.13;5014834;28;1468;-75
2022/04/07 04:56:49;;;;;;;;;;;;;;;21.03;27.10;97009.00;5015712;28;945;-75
2022/04/07 04:59:15;;;;;;;;;;;;;;;21.42;26.68;96994.56;5015821;28;1653;-75
2022/04/07 05:01:40;;;;;;;;;;;;;;;21.60;26.29;96991.75;4980668;28;1983;-75
2022/04/07 05:04:05;;;;;;;;;;;;;;;21.91;25.75;96985.16;5015882;28;966;-75
2022/04/07 05:06:31;;;;;;;;;;;;;;;21.98;25.90;96979.22;5015437;28;965;-75
2022/04/07 05:08:56;;;;;;;;;;;;;;;21.87;25.82;96974.00;5015883;28;981;-75
2022/04/07 05:11:22;;;;;;;;;;;;;;;21.36;26.51;96983.06;5015474;28;1735;-75
2022/04/07 05:13:47;;;;;;;;;;;;;;;21.35;26.54;96978.66;5015633;28;1040;-75
2022/04/07 05:16:15;;;;;;;;;;;;;;;21.10;26.79;96976.03;5015883;28;950;-75
2022/04/07 05:18:46;;;;;;;;;;;;;;;21.09;27.17;96975.25;5015803;28;998;-75
2022/04/07 05:21:13;;;;;;;;;;;;;;;20.97;27.31;96987.44;5011087;28;2042;-75
2022/04/07 05:23:38;;;;;;;;;;;;;;;21.00;27.37;96987.31;5015275;28;1652;-75
2022/04/07 05:26:04;;;;;;;;;;;;;;;20.95;27.46;96985.09;5015373;28;1678;-75
2022/04/07 05:28:29;;;;;;;;;;;;;;;21.33;26.63;96987.59;5015286;28;1145;-75
2022/04/07 05:30:56;;;;;;;;;;;;;;;21.64;26.28;97000.09;5015433;28;963;-75
2022/04/07 05:33:21;;;;;;;;;;;;;;;21.87;26.02;96996.66;5015506;28;883;-75
2022/04/07 05:35:47;;;;;;;;;;;;;;;21.70;25.98;97004.66;5005004;28;1507;-75
2022/04/07 05:38:13;;;;;;;;;;;;;;;21.27;26.63;96999.97;4993114;28;1190;-75
2022/04/07 05:40:38;;;;;;;;;;;;;;;21.17;26.76;97002.00;4992929;28;1906;-75
2022/04/07 05:43:04;;;;;;;;;;;;;;;21.06;26.96;97007.28;4992540;28;1517;-75
2022/04/07 05:45:30;;;;;;;;;;;;;;;21.25;26.84;97008.94;4993089;28;1681;-75
2022/04/07 05:47:55;;;;;;;;;;;;;;;21.70;26.27;97010.31;5004113;28;1067;-75
2022/04/07 05:50:20;;;;;;;;;;;;;;;21.81;26.11;96996.50;5012621;28;1140;-75
2022/04/07 05:52:46;;;;;;;;;;;;;;;21.53;26.40;97003.38;5012814;28;1224;-75
2022/04/07 05:55:11;;;;;;;;;;;;;;;21.14;26.90;97008.59;5012314;28;1433;-75
2022/04/07 05:57:37;;;;;;;;;;;;;;;21.11;26.81;97009.50;4997267;28;1594;-75
2022/04/07 06:00:04;;;;;;;;;;;;;;;20.89;27.52;97014.47;4992607;28;1984;-74
2022/04/07 06:02:30;;;;;;;;;;;;;;;21.47;26.47;97036.38;4992938;28;1425;-75
2022/04/07 06:04:55;;;;;;;;;;;;;;;21.81;26.22;97021.19;4993309;28;953;-75
2022/04/07 06:07:20;;;;;;;;;;;;;;;21.91;25.97;97002.16;4994726;28;1039;-75
2022/04/07 06:09:46;;;;;;;;;;;;;;;21.40;26.43;97014.03;4994091;28;1330;-75
2022/04/07 06:12:11;;;;;;;;;;;;;;;21.19;26.76;97008.00;4996115;28;923;-75
2022/04/07 06:14:37;;;;;;;;;;;;;;;21.09;26.86;97003.53;4999069;28;1851;-75
2022/04/07 06:17:03;;;;;;;;;;;;;;;21.31;26.78;97007.09;4999189;28;964;-75
2022/04/07 06:19:29;;;;;;;;;;;;;;;21.63;26.36;96999.31;4999164;28;1009;-75
2022/04/07 06:21:54;;;;;;;;;;;;;;;21.96;25.82;96981.69;4998895;28;1914;-75
2022/04/07 06:24:20;;;;;;;;;;;;;;;21.44;26.56;96992.03;4998821;28;1030;-75
2022/04/07 06:26:45;;;;;;;;;;;;;;;21.17;27.07;96962.38;4998692;28;1012;-75
2022/04/07 06:29:11;;;;;;;;;;;;;;;21.10;27.06;96968.34;4999141;28;936;-75
2022/04/07 06:31:36;;;;;;;;;;;;;;;21.40;26.84;96951.75;4998934;28;895;-75
2022/04/07 06:34:02;;;;;;;;;;;;;;;21.71;26.13;96955.28;4998790;28;999;-75
2022/04/07 06:36:27;;;;;;;;;;;;;;;21.81;25.93;96948.38;4996279;28;1017;-75
2022/04/07 06:38:53;;;;;;;;;;;;;;;21.38;26.60;96945.81;4998448;28;954;-74
2022/04/07 06:41:18;;;;;;;;;;;;;;;21.07;27.01;96940.97;5007614;28;1969;-75
2022/04/07 06:43:43;;;;;;;;;;;;;;;20.95;27.03;96939.06;5001102;28;1676;-75
2022/04/07 06:46:09;;;;;;;;;;;;;;;20.94;27.29;96926.19;4996111;28;1654;-75
2022/04/07 06:48:34;;;;;;;;;;;;;;;20.95;27.42;96925.72;4996021;28;1704;-75
2022/04/07 06:51:00;;;;;;;;;;;;;;;21.52;26.59;96919.72;5009796;28;1075;-75
2022/04/07 06:53:25;;;;;;;;;;;;;;;21.91;26.08;96917.19;5015728;28;986;-75
2022/04/07 06:55:51;;;;;;;;;;;;;;;21.78;26.01;96918.16;5015362;28;993;-75
2022/04/07 06:58:17;;;;;;;;;;;;;;;21.42;26.50;96926.63;5015898;28;1016;-75
2022/04/07 07:00:43;;;;;;;;;;;;;;;21.08;27.03;96936.91;4998860;28;1894;-75
2022/04/07 07:03:09;;;;;;;;;;;;;;;20.95;27.33;96939.06;5015518;28;997;-76
2022/04/07 07:05:35;;;;;;;;;;;;;;;21.28;26.92;96942.13;5015047;28;1266;-75
2022/04/07 07:08:10;;;;;;;;;;;;;;;21.65;26.10;96940.16;4995238;28;1251;-75
2022/04/07 07:10:35;;;;;;;;;;;;;;;21.76;25.82;96949.00;4995694;28;977;-75
2022/04/07 07:13:01;;;;;;;;;;;;;;;21.37;26.63;96949.91;4995209;28;1641;-75
2022/04/07 07:15:26;;;;;;;;;;;;;;;21.13;26.78;96953.25;4992527;28;1629;-75
2022/04/07 07:17:52;;;;;;;;;;;;;;;20.92;27.37;96945.66;4995179;28;1212;-75
2022/04/07 07:20:18;;;;;;;;;;;;;;;21.45;26.63;96920.00;4995140;28;1989;-74
2022/04/07 07:22:44;;;;;;;;;;;;;;;21.82;25.79;96921.63;4994777;28;935;-75
2022/04/07 07:25:09;;;;;;;;;;;;;;;21.67;26.15;96926.34;4995688;28;1029;-75
2022/04/07 07:27:38;;;;;;;;;;;;;;;21.36;26.43;96914.38;4991915;28;1796;-75
2022/04/07 07:30:04;;;;;;;;;;;;;;;21.02;26.79;96921.78;4987341;28;1950;-75
2022/04/07 07:32:29;;;;;;;;;;;;;;;21.00;27.25;96918.66;4986453;28;1684;-75
2022/04/07 07:34:55;;;;;;;;;;;;;;;20.98;27.13;96912.66;4975795;28;1030;-75
2022/04/07 07:37:20;;;;;;;;;;;;;;;20.97;27.38;96896.97;4990801;28;1627;-75
2022/04/07 07:39:46;;;;;;;;;;;;;;;20.96;27.40;96889.75;5010962;28;1037;-75
2022/04/07 07:42:11;;;;;;;;;;;;;;;21.12;27.19;96869.66;5014400;28;1971;-75
2022/04/07 07:44:36;;;;;;;;;;;;;;;20.93;27.20;96879.34;5010352;28;2207;-75
2022/04/07 07:47:02;;;;;;;;;;;;;;;20.92;27.16;96838.97;5014405;28;1684;-75
2022/04/07 07:49:28;;;;;;;;;;;;;;;21.71;26.30;96869.53;5013587;28;2160;-75
2022/04/07 07:51:53;;;;;;;;;;;;;;;21.87;26.14;96874.13;5005706;28;1740;-75
2022/04/07 07:54:19;;;;;;;;;;;;;;;21.67;25.94;96854.78;5015580;28;1432;-75
2022/04/07 07:56:44;;;;;;;;;;;;;;;21.25;27.03;96861.03;4994969;28;1485;-75
2022/04/07 07:59:10;;;;;;;;;;;;;;;21.06;27.05;96854.56;4994314;28;1506;-75
2022/04/07 08:01:35;;;;;;;;;;;;;;;21.29;27.00;96850.34;4994411;28;1914;-75
2022/04/07 08:04:00;;;;;;;;;;;;;;;21.73;26.21;96842.34;4994372;28;1509;-75
2022/04/07 08:06:27;;;;;;;;;;;;;;;21.87;26.09;96838.09;4994800;28;1088;-74
2022/04/07 08:08:52;;;;;;;;;;;;;;;21.45;26.42;96833.09;4994669;28;1051;-75
2022/04/07 08:11:18;;;;;;;;;;;;;;;21.30;26.55;96823.66;4997466;28;1507;-75
2022/04/07 08:13:43;;;;;;;;;;;;;;;21.17;26.78;96825.81;4994501;28;1108;-75
2022/04/07 08:16:10;;;;;;;;;;;;;;;20.98;27.31;96822.19;4993585;28;1497;-76
2022/04/07 08:18:35;;;;;;;;;;;;;;;21.04;27.44;96811.84;4994009;28;950;-75
2022/04/07 08:21:01;;;;;;;;;;;;;;;20.97;27.41;96806.47;4993922;28;1975;-75
2022/04/07 08:23:26;;;;;;;;;;;;;;;21.72;26.28;96798.31;4993895;28;974;-74
2022/04/07 08:25:52;;;;;;;;;;;;;;;21.78;26.26;96779.41;4993973;28;1465;-75
2022/04/07 08:28:17;;;;;;;;;;;;;;;21.95;25.93;96781.88;4977665;28;1095;-75
2022/04/07 08:30:42;;;;;;;;;;;;;;;21.47;26.61;96776.03;4995933;28;970;-75
2022/04/07 08:33:08;;;;;;;;;;;;;;;21.13;27.09;96775.06;4996596;28;916;-75
2022/04/07 08:35:33;;;;;;;;;;;;;;;21.18;26.96;96765.94;4995504;28;1637;-75
2022/04/07 08:37:59;;;;;;;;;;;;;;;21.38;26.80;96757.00;4996772;28;1106;-75
2022/04/07 08:40:24;;;;;;;;;;;;;;;21.67;26.20;96756.47;4996719;28;1910;-75
2022/04/07 08:42:50;;;;;;;;;;;;;;;21.81;26.24;96757.84;4996525;28;928;-75
2022/04/07 08:45:15;;;;;;;;;;;;;;;21.66;25.96;96743.59;4995362;28;950;-75
2022/04/07 08:47:41;;;;;;;;;;;;;;;21.37;26.50;96732.78;4996253;28;1024;-75
2022/04/07 08:50:07;;;;;;;;;;;;;;;21.12;26.89;96718.97;5002487;28;1615;-75
2022/04/07 08:52:32;;;;;;;;;;;;;;;20.97;27.33;96708.28;5016003;28;986;-75
2022/04/07 08:54:58;;;;;;;;;;;;;;;21.41;26.67;96705.13;4954908;29;1054;-75
2022/04/07 08:57:23;;;;;;;;;;;;;;;21.91;25.95;96701.97;4954880;29;1096;-75
2022/04/07 08:59:49;;;;;;;;;;;;;;;21.67;26.15;96699.09;4935610;29;1168;-75
2022/04/07 09:02:14;;;;;;;;;;;;;;;21.31;26.75;96689.44;4935692;29;1986;-75
2022/04/07 09:04:40;;;;;;;;;;;;;;;21.02;27.16;96690.69;4935616;29;1519;-75
2022/04/07 09:07:06;;;;;;;;;;;;;;;21.00;27.43;96689.59;4936012;29;1440;-75
2022/04/07 09:09:32;;;;;;;;;;;;;;;21.42;26.78;96677.63;4918984;29;1570;-75
2022/04/07 09:11:58;;;;;;;;;;;;;;;21.70;26.48;96681.91;4935681;29;1730;-75
2022/04/07 09:14:23;;;;;;;;;;;;;;;21.95;25.78;96660.88;4935521;29;1030;-76
2022/04/07 09:16:55;;;;;;;;;;;;;;;21.46;26.55;96667.69;4935950;29;1613;-75
2022/04/07 09:19:21;;;;;;;;;;;;;;;21.25;26.67;96658.13;4942614;29;1106;-75
2022/04/07 09:21:46;;;;;;;;;;;;;;;21.10;26.75;96662.09;4954660;29;1911;-74
2022/04/07 09:24:12;;;;;;;;;;;;;;;21.01;27.06;96649.53;4954647;29;1066;-75
2022/04/07 09:26:42;;;;;;;;;;;;;;;21.55;26.57;96641.41;4969556;28;1010;-76
2022/04/07 09:29:08;;;;;;;;;;;;;;;21.76;26.06;96648.88;4970900;28;1788;-74
2022/04/07 09:31:36;;;;;;;;;;;;;;;21.76;26.20;96636.75;5004020;28;1077;-74
2022/04/07 09:34:02;;;;;;;;;;;;;;;21.37;26.56;96630.16;4973566;28;1048;-74
2022/04/07 09:36:27;;;;;;;;;;;;;;;21.26;26.90;96631.41;4974116;28;1016;-74
2022/04/07 09:38:53;;;;;;;;;;;;;;;21.14;27.09;96635.22;4973537;28;1564;-74
2022/04/07 09:41:19;;;;;;;;;;;;;;;21.21;27.18;96620.75;4973802;28;1931;-74
2022/04/07 09:43:48;;;;;;;;;;;;;;;21.12;27.43;96608.66;4973887;28;996;-74
2022/04/07 09:46:14;;;;;;;;;;;;;;;20.98;27.72;96604.44;4954129;28;1010;-74
2022/04/07 09:48:40;;;;;;;;;;;;;;;21.05;27.49;96598.47;4957244;29;962;-73
2022/04/07 09:51:08;;;;;;;;;;;;;;;21.57;26.84;96600.03;4958069;29;1068;-74
2022/04/07 09:53:37;;;;;;;;;;;;;;;21.75;26.52;96598.38;4907917;29;1512;-74
2022/04/07 09:56:03;;;;;;;;;;;;;;;21.72;26.12;96594.47;4950412;29;1703;-74
2022/04/07 09:58:29;;;;;;;;;;;;;;;21.28;27.17;96597.75;4958213;29;995;-75
2022/04/07 10:00:56;;;;;;;;;;;;;;;21.14;27.24;96589.97;4940387;29;1898;-74
2022/04/07 10:03:21;;;;;;;;;;;;;;;21.04;27.44;96585.59;4919542;29;1042;-74
2022/04/07 10:05:47;;;;;;;;;;;;;;;21.52;26.65;96574.44;4950798;29;1049;-74
2022/04/07 10:08:14;;;;;;;;;;;;;;;21.74;26.27;96552.31;4957593;28;1402;-74
2022/04/07 10:10:40;;;;;;;;;;;;;;;21.84;25.92;96556.66;4957214;29;1058;-73
2022/04/07 10:13:05;;;;;;;;;;;;;;;21.30;26.65;96546.41;4941403;29;1646;-75
2022/04/07 10:15:31;;;;;;;;;;;;;;;21.06;27.25;96546.31;4956763;28;2261;-75
2022/04/07 10:17:56;;;;;;;;;;;;;;;21.16;27.32;96536.53;4923177;29;1522;-75
2022/04/07 10:20:22;;;;;;;;;;;;;;;21.55;26.73;96511.22;4930503;29;1978;-74
2022/04/07 10:23:00;;;;;;;;;;;;;;;21.92;26.13;96508.16;4935862;29;1108;-74
2022/04/07 10:25:25;;;;;;;;;;;;;;;21.52;26.54;96486.72;4938889;29;1069;-74
2022/04/07 10:27:54;;;;;;;;;;;;;;;21.24;27.00;96486.84;4900058;29;1032;-74
2022/04/07 10:30:20;;;;;;;;;;;;;;;21.10;27.19;96479.06;4899992;29;1539;-75
2022/04/07 10:32:57;;;;;;;;;;;;;;;20.98;27.31;96482.84;4885296;29;1015;-74
2022/04/07 10:35:29;;;;;;;;;;;;;;;20.97;27.25;96484.13;4899222;29;1547;-74
2022/04/07 10:37:54;;;;;;;;;;;;;;;20.98;27.54;96485.69;4912795;29;1630;-74
2022/04/07 10:40:38;;;;;;;;;;;;;;;21.45;26.98;96478.56;4905919;29;1919;-74
2022/04/07 10:43:04;;;;;;;;;;;;;;;21.84;26.26;96479.41;4899960;29;1681;-74
2022/04/07 10:45:33;;;;;;;;;;;;;;;21.54;26.58;96472.84;4916305;29;1154;-74
2022/04/07 10:48:17;;;;;;;;;;;;;;;21.29;26.67;96489.00;4881184;29;1059;-74
2022/04/07 10:50:46;;;;;;;;;;;;;;;21.16;26.87;96496.94;4889571;29;1090;-74
2022/04/07 10:53:20;;;;;;;;;;;;;;;21.26;27.06;96495.63;4918876;29;1012;-75
2022/04/07 10:56:10;;;;;;;;;;;;;;;21.69;26.35;96493.50;4919163;29;1082;-74
2022/04/07 10:58:43;;;;;;;;;;;;;;;21.87;25.99;96492.63;4870242;29;1520;-75
2022/04/07 11:01:26;;;;;;;;;;;;;;;21.44;26.34;96499.63;4888647;29;1900;-74
2022/04/07 11:04:11;;;;;;;;;;;;;;;21.24;27.03;96517.16;4899807;29;1160;-74
2022/04/07 11:06:36;;;;;;;;;;;;;;;21.10;27.14;96498.06;4881453;29;995;-74
2022/04/07 11:09:11;;;;;;;;;;;;;;;21.24;27.25;96478.34;4881186;29;1113;-74
2022/04/07 11:11:52;;;;;;;;;;;;;;;21.65;26.71;96475.13;4881080;29;952;-74
2022/04/07 11:14:18;;;;;;;;;;;;;;;21.94;26.21;96477.28;4914826;29;1769;-75
2022/04/07 11:16:43;;;;;;;;;;;;;;;21.45;26.53;96476.53;4918477;29;938;-74
2022/04/07 11:19:12;;;;;;;;;;;;;;;20.98;27.26;96477.97;4918637;29;1006;-75
2022/04/07 11:21:49;;;;;;;;;;;;;;;20.88;27.56;96458.72;4918289;29;1964;-74
2022/04/07 11:24:15;;;;;;;;;;;;;;;21.29;27.21;96449.38;4918488;29;950;-74
2022/04/07 11:26:41;;;;;;;;;;;;;;;21.87;25.96;96418.22;4918400;29;1124;-74
2022/04/07 11:29:07;;;;;;;;;;;;;;;22.03;25.79;96420.59;4902475;29;1559;-74
2022/04/07 11:31:48;;;;;;;;;;;;;;;21.49;26.39;96411.25;4918356;29;1467;-74
2022/04/07 11:34:32;;;;;;;;;;;;;;;21.17;27.16;96407.97;4899323;29;1003;-74
2022/04/07 11:36:58;;;;;;;;;;;;;;;21.03;27.38;96415.13;4956388;29;991;-74
2022/04/07 11:39:24;;;;;;;;;;;;;;;21.46;26.81;96429.22;4918029;29;1062;-75
2022/04/07 11:41:49;;;;;;;;;;;;;;;21.75;26.08;96429.28;4902212;29;1907;-74
2022/04/07 11:44:17;;;;;;;;;;;;;;;21.62;26.43;96408.97;4918161;29;1075;-74
2022/04/07 11:46:43;;;;;;;;;;;;;;;21.30;26.38;96402.13;4918909;29;1477;-74
2022/04/07 11:49:09;;;;;;;;;;;;;;;21.05;26.84;96411.84;4936909;29;1016;-74
2022/04/07 11:51:35;;;;;;;;;;;;;;;20.91;27.08;96390.69;4936771;29;1398;-75
2022/04/07 11:54:01;;;;;;;;;;;;;;;21.12;27.29;96382.41;4936543;29;1087;-74
2022/04/07 11:56:34;;;;;;;;;;;;;;;21.69;26.11;96404.97;4952886;29;1022;-75
2022/04/07 11:59:03;;;;;;;;;;;;;;;21.82;26.00;96411.94;4898296;29;1080;-74
2022/04/07 12:01:29;;;;;;;;;;;;;;;21.68;26.21;96424.00;4882457;29;2022;-74
2022/04/07 12:04:00;;;;;;;;;;;;;;;21.33;26.68;96421.72;4879701;29;1013;-74
2022/04/07 12:06:26;;;;;;;;;;;;;;;21.24;27.07;96420.97;4879657;29;982;-74
2022/04/07 12:08:52;;;;;;;;;;;;;;;20.95;27.27;96432.94;4880077;29;1085;-74
2022/04/07 12:11:19;;;;;;;;;;;;;;;21.58;26.70;96425.34;4915113;29;1632;-75
2022/04/07 12:13:44;;;;;;;;;;;;;;;21.79;26.09;96418.56;4917400;29;1041;-74
2022/04/07 12:16:10;;;;;;;;;;;;;;;21.64;26.34;96423.41;4898739;29;1047;-75
2022/04/07 12:18:35;;;;;;;;;;;;;;;21.29;26.76;96406.94;4898538;29;972;-75
2022/04/07 12:21:01;;;;;;;;;;;;;;;21.05;27.04;96400.53;4898398;29;1915;-74
2022/04/07 12:23:27;;;;;;;;;;;;;;;21.18;26.98;96400.28;4898425;29;1169;-75
2022/04/07 12:25:59;;;;;;;;;;;;;;;21.51;26.55;96431.38;4898838;29;1571;-75
2022/04/07 12:28:30;;;;;;;;;;;;;;;21.82;26.06;96454.44;4917086;29;972;-75
2022/04/07 12:30:56;;;;;;;;;;;;;;;21.39;26.68;96466.34;4933500;29;1018;-74
2022/04/07 12:33:40;;;;;;;;;;;;;;;21.21;26.98;96408.59;4935956;29;1194;-74
2022/04/07 12:36:06;;;;;;;;;;;;;;;21.18;27.23;96384.09;4936047;29;1064;-74
2022/04/07 12:38:32;;;;;;;;;;;;;;;21.34;27.12;96380.06;4948911;28;1007;-74
2022/04/07 12:41:07;;;;;;;;;;;;;;;21.92;25.99;96378.69;4978081;28;1954;-74
2022/04/07 12:43:45;;;;;;;;;;;;;;;21.93;25.97;96387.94;4977851;28;988;-75
2022/04/07 12:46:11;;;;;;;;;;;;;;;20.15;26.48;96172.41;4975825;28;999;-74
2022/04/07 12:48:36;;;;;;;;;;;;;;;21.37;26.70;96387.63;4993734;28;1039;-75
2022/04/07 12:51:27;;;;;;;;;;;;;;;21.23;26.79;96386.25;4993290;28;1097;-75
2022/04/07 12:54:03;;;;;;;;;;;;;;;21.46;26.81;96398.09;4916795;29;1259;-74
2022/04/07 12:56:29;;;;;;;;;;;;;;;21.75;26.11;96400.97;4878952;29;1477;-74
2022/04/07 12:59:02;;;;;;;;;;;;;;;21.55;26.34;96392.34;4878988;29;1323;-74